createdAt,value
2018-12-14T00:00:53.824Z,18.97
2018-12-14T00:03:20.082Z,20.07
2018-12-14T00:05:46.332Z,20.80
2018-12-14T00:08:12.639Z,21.03
2018-12-14T00:10:39.593Z,19.07
2018-12-14T00:13:06.040Z,20.67
2018-12-14T00:15:32.325Z,20.20
2018-12-14T00:17:58.634Z,19.33
2018-12-14T00:20:24.869Z,20.73
2018-12-14T00:22:51.201Z,23.10
2018-12-14T00:25:17.472Z,21.17
2018-12-14T00:27:43.741Z,21.57
2018-12-14T00:30:10.152Z,20.63
2018-12-14T00:32:36.461Z,20.77
2018-12-14T00:35:03.328Z,21.87
2018-12-14T00:37:29.577Z,21.63
2018-12-14T00:39:55.897Z,20.97
2018-12-14T00:42:22.233Z,20.33
2018-12-14T00:44:48.540Z,22.97
2018-12-14T00:47:14.799Z,20.83
2018-12-14T00:49:41.134Z,20.10
2018-12-14T00:52:07.387Z,20.47
2018-12-14T00:54:33.680Z,20.97
2018-12-14T00:56:59.938Z,23.13
2018-12-14T00:59:26.184Z,20.20
2018-12-14T01:01:52.486Z,21.10
2018-12-14T01:04:18.850Z,19.80
2018-12-14T01:06:45.159Z,20.47
2018-12-14T01:09:11.456Z,18.83
2018-12-14T01:11:37.917Z,23.93
2018-12-14T01:14:04.350Z,22.93
2018-12-14T01:16:30.622Z,21.43
2018-12-14T01:18:56.893Z,21.70
2018-12-14T01:21:23.174Z,20.20
2018-12-14T01:23:49.539Z,19.27
2018-12-14T01:26:15.863Z,20.87
2018-12-14T01:28:42.180Z,23.20
2018-12-14T01:31:08.534Z,22.23
2018-12-14T01:33:34.847Z,24.93
2018-12-14T01:36:01.141Z,21.23
2018-12-14T01:38:27.397Z,22.33
2018-12-14T01:40:53.698Z,20.50
2018-12-14T01:43:21.009Z,23.63
2018-12-14T01:45:47.296Z,21.37
2018-12-14T01:48:13.776Z,20.20
2018-12-14T01:50:40.121Z,18.53
2018-12-14T01:53:06.629Z,22.70
2018-12-14T01:55:32.886Z,19.23
2018-12-14T01:58:01.529Z,21.87
2018-12-14T02:00:27.864Z,19.10
2018-12-14T02:02:54.174Z,21.03
2018-12-14T02:05:20.485Z,20.43
2018-12-14T02:07:46.829Z,21.00
2018-12-14T02:10:13.129Z,22.83
2018-12-14T02:12:39.390Z,21.07
2018-12-14T02:15:05.844Z,19.10
2018-12-14T02:17:33.112Z,19.77
2018-12-14T02:19:59.429Z,18.87
2018-12-14T02:22:25.756Z,22.77
2018-12-14T02:24:52.078Z,18.10
2018-12-14T02:27:18.339Z,21.10
2018-12-14T02:29:44.610Z,20.07
2018-12-14T02:32:10.959Z,18.97
2018-12-14T02:34:37.603Z,18.20
2018-12-14T02:37:03.905Z,22.83
2018-12-14T02:39:30.161Z,20.87
2018-12-14T02:41:56.607Z,20.23
2018-12-14T02:44:23.988Z,19.17
2018-12-14T02:46:50.341Z,20.83
2018-12-14T02:49:16.656Z,19.57
2018-12-14T02:51:42.923Z,20.70
2018-12-14T02:54:09.418Z,20.93
2018-12-14T02:56:35.708Z,21.67
2018-12-14T02:59:02.025Z,21.90
2018-12-14T03:01:28.307Z,19.07
2018-12-14T03:03:54.592Z,19.73
2018-12-14T03:06:21.919Z,19.77
2018-12-14T03:08:48.149Z,20.37
2018-12-14T03:11:14.428Z,19.70
2018-12-14T03:13:40.710Z,19.97
2018-12-14T03:16:06.964Z,20.53
2018-12-14T03:18:33.252Z,22.00
2018-12-14T03:21:00.625Z,21.10
2018-12-14T03:23:26.961Z,18.73
2018-12-14T03:25:53.219Z,20.80
2018-12-14T03:28:19.536Z,21.60
2018-12-14T03:30:45.854Z,20.40
2018-12-14T03:33:12.180Z,20.70
2018-12-14T03:35:38.434Z,18.77
2018-12-14T03:38:04.689Z,16.10
2018-12-14T03:40:30.976Z,17.10
2018-12-14T03:42:57.232Z,19.07
2018-12-14T03:45:23.527Z,19.30
2018-12-14T03:47:49.894Z,18.37
2018-12-14T03:53:09.470Z,20.23
2018-12-14T03:55:35.817Z,17.50
2018-12-14T03:58:02.412Z,21.50
2018-12-14T04:00:28.988Z,19.57
2018-12-14T04:02:55.345Z,20.70
2018-12-14T04:05:22.064Z,21.47
2018-12-14T04:07:48.543Z,18.50
2018-12-14T04:10:14.989Z,16.33
2018-12-14T04:12:42.149Z,19.27
2018-12-14T04:15:08.874Z,18.80
2018-12-14T04:17:35.249Z,16.33
2018-12-14T04:20:01.602Z,17.10
2018-12-14T04:22:27.966Z,19.70
2018-12-14T04:24:54.523Z,18.37
2018-12-14T04:27:30.895Z,18.53
2018-12-14T04:29:57.956Z,19.10
2018-12-14T04:32:24.376Z,16.60
2018-12-14T04:34:52.014Z,19.23
2018-12-14T04:37:18.409Z,17.43
2018-12-14T04:39:45.775Z,18.63
2018-12-14T04:42:12.126Z,15.93
2018-12-14T04:44:38.485Z,17.07
2018-12-14T04:47:05.202Z,18.70
2018-12-14T04:49:32.901Z,18.55
2018-12-14T04:52:02.247Z,19.57
2018-12-14T04:54:28.879Z,19.17
2018-12-14T04:56:55.181Z,19.07
2018-12-14T04:59:21.517Z,18.27
2018-12-14T05:01:47.798Z,16.97
2018-12-14T05:04:14.098Z,19.10
2018-12-14T05:06:40.393Z,17.47
2018-12-14T05:09:06.736Z,17.67
2018-12-14T05:11:33.027Z,18.23
2018-12-14T05:13:59.318Z,18.10
2018-12-14T05:16:25.654Z,18.80
2018-12-14T05:18:52.021Z,18.93
2018-12-14T05:21:18.497Z,18.70
2018-12-14T05:23:51.422Z,18.00
2018-12-14T05:26:20.466Z,20.23
2018-12-14T05:28:47.785Z,18.27
2018-12-14T05:36:34.847Z,18.20
2018-12-14T05:39:01.142Z,18.07
2018-12-14T05:41:27.408Z,18.50
2018-12-14T05:43:53.775Z,17.60
2018-12-14T05:46:20.219Z,18.17
2018-12-14T05:48:46.597Z,18.23
2018-12-14T05:51:12.993Z,17.77
2018-12-14T05:53:39.447Z,16.27
2018-12-14T05:56:06.025Z,20.30
2018-12-14T05:58:32.354Z,19.67
2018-12-14T06:00:58.750Z,18.97
2018-12-14T06:03:25.030Z,19.53
2018-12-14T06:05:51.873Z,16.77
2018-12-14T06:08:18.209Z,19.57
2018-12-14T06:10:44.602Z,18.73
2018-12-14T06:13:10.937Z,20.77
2018-12-14T06:15:37.319Z,18.00
2018-12-14T06:18:03.747Z,19.07
2018-12-14T06:20:30.135Z,18.53
2018-12-14T06:22:56.432Z,16.67
2018-12-14T06:25:22.753Z,20.10
2018-12-14T06:27:49.105Z,19.20
2018-12-14T06:30:15.489Z,17.90
2018-12-14T06:32:41.788Z,18.63
2018-12-14T06:35:08.021Z,18.50
2018-12-14T06:37:34.486Z,17.67
2018-12-14T06:40:00.789Z,20.03
2018-12-14T06:42:27.172Z,19.43
2018-12-14T06:44:53.530Z,18.97
2018-12-14T06:47:19.792Z,21.60
2018-12-14T06:49:46.024Z,20.07
2018-12-14T06:52:12.378Z,19.37
2018-12-14T06:54:38.698Z,20.17
2018-12-14T06:57:04.965Z,17.33
2018-12-14T06:59:31.269Z,20.37
2018-12-14T07:01:57.647Z,22.20
2018-12-14T07:04:23.960Z,20.80
2018-12-14T07:06:50.257Z,20.13
2018-12-14T07:09:16.629Z,19.50
2018-12-14T07:11:43.050Z,17.90
2018-12-14T07:14:09.337Z,21.63
2018-12-14T07:16:35.736Z,19.50
2018-12-14T07:19:02.070Z,20.57
2018-12-14T07:21:28.348Z,19.83
2018-12-14T07:23:55.025Z,20.77
2018-12-14T07:26:21.357Z,20.23
2018-12-14T07:28:47.875Z,20.80
2018-12-14T07:31:14.254Z,21.97
2018-12-14T07:33:40.588Z,19.90
2018-12-14T07:36:06.930Z,19.23
2018-12-14T07:38:33.498Z,18.97
2018-12-14T07:41:01.498Z,18.47
2018-12-14T07:43:28.450Z,16.23
2018-12-14T07:45:55.151Z,18.80
2018-12-14T07:48:21.450Z,18.23
2018-12-14T07:50:47.803Z,18.83
2018-12-14T07:53:14.164Z,22.10
2018-12-14T07:55:40.495Z,19.37
2018-12-14T07:58:06.922Z,19.20
2018-12-14T08:00:33.245Z,18.73
2018-12-14T08:02:59.564Z,18.83
2018-12-14T08:05:25.830Z,18.33
2018-12-14T08:07:52.134Z,20.40
2018-12-14T08:10:18.619Z,19.03
2018-12-14T08:12:44.937Z,18.57
2018-12-14T08:15:12.101Z,20.43
2018-12-14T08:17:38.353Z,20.13
2018-12-14T08:20:05.188Z,20.60
2018-12-14T08:22:31.535Z,20.43
2018-12-14T08:24:57.810Z,18.83
2018-12-14T08:27:24.162Z,20.90
2018-12-14T08:29:51.838Z,21.63
2018-12-14T08:32:18.365Z,20.53
2018-12-14T08:34:50.755Z,20.63
2018-12-14T08:37:12.981Z,19.90
2018-12-14T08:39:39.275Z,21.47
2018-12-14T08:42:05.652Z,19.17
2018-12-14T08:44:32.007Z,20.53
2018-12-14T08:46:58.296Z,20.43
2018-12-14T08:49:24.604Z,19.97
2018-12-14T08:51:50.952Z,20.70
2018-12-14T08:54:17.326Z,20.03
2018-12-14T08:56:43.588Z,18.60
2018-12-14T08:59:09.968Z,19.67
2018-12-14T09:01:36.454Z,19.47
2018-12-14T09:04:02.849Z,21.63
2018-12-14T09:06:29.152Z,19.13
2018-12-14T09:08:55.503Z,20.70
2018-12-14T09:11:21.890Z,21.20
2018-12-14T09:13:48.322Z,19.63
2018-12-14T09:16:14.825Z,21.40
2018-12-14T09:18:41.148Z,22.50
2018-12-14T09:21:07.531Z,20.90
2018-12-14T09:23:33.872Z,20.30
2018-12-14T09:26:00.292Z,16.90
2018-12-14T09:28:26.707Z,20.03
2018-12-14T09:30:53.046Z,23.13
2018-12-14T09:33:19.352Z,21.90
2018-12-14T09:35:45.772Z,21.67
2018-12-14T09:38:12.060Z,21.73
2018-12-14T09:40:38.387Z,20.77
2018-12-14T09:43:04.640Z,18.93
2018-12-14T09:45:30.945Z,19.47
2018-12-14T09:47:57.310Z,18.17
2018-12-14T09:50:23.614Z,18.83
2018-12-14T09:52:50.581Z,19.37
2018-12-14T09:55:17.113Z,22.37
2018-12-14T09:57:43.393Z,20.07
2018-12-14T10:00:09.912Z,23.67
2018-12-14T10:02:36.209Z,19.93
2018-12-14T10:05:03.278Z,20.30
2018-12-14T10:07:29.636Z,19.53
2018-12-14T10:09:55.909Z,22.00
2018-12-14T10:12:22.204Z,21.73
2018-12-14T10:14:48.558Z,20.67
2018-12-14T10:17:14.889Z,20.17
2018-12-14T10:19:41.179Z,18.77
2018-12-14T10:22:07.486Z,21.07
2018-12-14T10:24:33.799Z,19.70
2018-12-14T10:27:00.154Z,18.80
2018-12-14T10:29:26.511Z,18.53
2018-12-14T10:31:52.840Z,18.53
2018-12-14T10:34:19.188Z,20.13
2018-12-14T10:36:45.469Z,22.97
2018-12-14T10:39:11.741Z,18.37
2018-12-14T10:41:39.850Z,18.87
2018-12-14T10:44:07.588Z,21.80
2018-12-14T10:46:34.077Z,21.97
2018-12-14T10:49:00.450Z,21.77
2018-12-14T10:51:26.785Z,22.90
2018-12-14T10:53:53.121Z,22.17
2018-12-14T10:56:19.415Z,21.00
2018-12-14T10:58:45.822Z,19.63
2018-12-14T11:01:18.439Z,20.53
2018-12-14T11:03:44.755Z,18.93
2018-12-14T11:06:11.112Z,16.97
2018-12-14T11:08:37.471Z,25.13
2018-12-14T11:11:03.785Z,26.83
2018-12-14T11:13:30.098Z,22.17
2018-12-14T11:15:56.431Z,21.23
2018-12-14T11:18:22.772Z,23.17
2018-12-14T11:20:49.118Z,21.37
2018-12-14T11:23:15.564Z,23.67
2018-12-14T11:25:41.887Z,24.13
2018-12-14T11:28:08.232Z,23.10
2018-12-14T11:30:34.582Z,23.70
2018-12-14T11:33:00.817Z,20.60
2018-12-14T11:35:27.165Z,22.43
2018-12-14T11:37:53.473Z,22.07
2018-12-14T11:40:19.745Z,19.43
2018-12-14T11:42:46.109Z,19.60
2018-12-14T11:45:12.384Z,21.13
2018-12-14T11:47:38.762Z,19.30
2018-12-14T11:50:06.453Z,16.57
2018-12-14T11:52:32.773Z,23.70
2018-12-14T11:54:59.023Z,22.53
2018-12-14T11:57:25.299Z,20.83
2018-12-14T11:59:51.694Z,21.97
2018-12-14T12:02:17.984Z,21.73
2018-12-14T12:04:44.261Z,20.43
2018-12-14T12:07:11.656Z,22.13
2018-12-14T12:09:37.982Z,23.10
2018-12-14T12:12:04.263Z,20.67
2018-12-14T12:14:30.605Z,21.20
2018-12-14T12:16:57.007Z,19.93
2018-12-14T12:19:23.328Z,24.30
2018-12-14T12:21:49.939Z,21.57
2018-12-14T12:24:16.272Z,18.93
2018-12-14T12:26:42.696Z,21.03
2018-12-14T12:29:09.101Z,21.00
2018-12-14T12:31:35.418Z,23.83
2018-12-14T12:34:03.209Z,24.00
2018-12-14T12:36:29.922Z,21.67
2018-12-14T12:38:56.230Z,20.33
2018-12-14T12:41:22.580Z,19.07
2018-12-14T12:43:48.933Z,19.73
2018-12-14T12:46:15.387Z,19.90
2018-12-14T12:48:42.107Z,21.50
2018-12-14T12:51:08.396Z,21.17
2018-12-14T12:53:34.748Z,19.03
2018-12-14T12:56:01.147Z,20.13
2018-12-14T12:58:27.405Z,19.50
2018-12-14T13:00:53.720Z,22.63
2018-12-14T13:03:20.081Z,19.27
2018-12-14T13:05:46.396Z,18.53
2018-12-14T13:08:12.640Z,17.90
2018-12-14T13:10:38.927Z,22.53
2018-12-14T13:13:05.222Z,21.53
2018-12-14T13:15:31.567Z,21.13
2018-12-14T13:17:57.913Z,18.80
2018-12-14T13:20:24.348Z,21.50
2018-12-14T13:22:50.608Z,21.67
2018-12-14T13:25:17.037Z,21.67
2018-12-14T13:27:43.361Z,20.10
2018-12-14T13:30:09.663Z,21.53
2018-12-14T13:32:35.995Z,19.63
2018-12-14T13:35:02.746Z,18.60
2018-12-14T13:37:29.048Z,23.57
2018-12-14T13:39:55.329Z,22.10
2018-12-14T13:42:21.657Z,22.07
2018-12-14T13:44:48.099Z,20.73
2018-12-14T13:47:14.428Z,20.03
2018-12-14T13:49:40.693Z,18.90
2018-12-14T13:52:06.985Z,18.30
2018-12-14T13:54:33.348Z,19.67
2018-12-14T13:56:59.738Z,19.00
2018-12-14T13:59:26.067Z,18.97
2018-12-14T14:01:52.414Z,16.73
2018-12-14T14:04:18.680Z,19.20
2018-12-14T14:06:44.987Z,20.70
2018-12-14T14:09:11.300Z,15.80
2018-12-14T14:11:37.579Z,19.20
2018-12-14T14:14:03.865Z,20.77
2018-12-14T14:16:30.154Z,20.13
2018-12-14T14:18:56.417Z,25.07
2018-12-14T14:21:22.763Z,20.87
2018-12-14T14:23:49.040Z,19.83
2018-12-14T14:26:15.377Z,19.00
2018-12-14T14:28:41.646Z,17.37
2018-12-14T14:31:07.891Z,17.77
2018-12-14T14:33:34.218Z,19.63
2018-12-14T14:36:00.490Z,19.90
2018-12-14T14:38:26.767Z,20.47
2018-12-14T14:40:53.044Z,18.83
2018-12-14T14:43:19.379Z,19.43
2018-12-14T14:45:45.614Z,21.90
2018-12-14T14:48:11.885Z,17.33
2018-12-14T14:50:38.178Z,19.87
2018-12-14T14:53:04.557Z,20.47
2018-12-14T14:55:30.803Z,20.03
2018-12-14T14:57:57.290Z,17.67
2018-12-14T15:00:23.664Z,20.60
2018-12-14T15:02:50.277Z,18.23
2018-12-14T15:05:16.630Z,24.77
2018-12-14T15:07:42.934Z,24.10
2018-12-14T15:10:09.198Z,21.00
2018-12-14T15:12:35.513Z,17.83
2018-12-14T15:15:06.703Z,20.00
2018-12-14T15:17:31.679Z,17.73
2018-12-14T15:19:57.948Z,24.23
2018-12-14T15:22:24.239Z,31.93
2018-12-14T15:24:50.523Z,32.40
2018-12-14T15:27:16.757Z,25.00
2018-12-14T15:29:43.052Z,21.87
2018-12-14T15:32:09.665Z,19.17
2018-12-14T15:34:35.931Z,18.40
2018-12-14T15:37:02.206Z,18.53
2018-12-14T15:39:28.537Z,19.60
2018-12-14T15:41:54.846Z,18.27
2018-12-14T15:44:21.230Z,22.17
2018-12-14T15:46:47.493Z,17.47
2018-12-14T15:49:13.808Z,21.60
2018-12-14T15:51:40.104Z,19.03
2018-12-14T15:54:06.489Z,17.20
2018-12-14T15:56:32.752Z,17.33
2018-12-14T15:58:59.041Z,15.60
2018-12-14T16:01:25.329Z,18.27
2018-12-14T16:03:51.844Z,15.17
2018-12-14T16:06:18.160Z,14.53
2018-12-14T16:08:44.438Z,17.30
2018-12-14T16:11:10.811Z,16.57
2018-12-14T16:13:37.117Z,15.67
2018-12-14T16:16:03.528Z,17.90
2018-12-14T16:18:29.933Z,15.53
2018-12-14T16:20:56.348Z,16.93
2018-12-14T16:23:26.656Z,18.13
2018-12-14T16:26:03.833Z,17.60
2018-12-14T16:28:32.101Z,22.10
2018-12-14T16:36:52.325Z,19.27
2018-12-14T16:42:12.032Z,21.40
2018-12-14T16:44:45.792Z,18.87
2018-12-14T16:47:18.119Z,19.53
2018-12-14T16:52:45.847Z,18.13
2018-12-14T16:58:23.566Z,22.07
2018-12-14T17:06:48.427Z,20.43
2018-12-14T17:18:12.335Z,19.77
2018-12-14T17:20:38.653Z,17.70
2018-12-14T17:23:11.184Z,20.00
2018-12-14T17:25:43.466Z,16.10
2018-12-14T17:28:16.158Z,19.60
2018-12-14T17:33:52.249Z,20.40
2018-12-14T17:36:22.801Z,20.37
2018-12-14T17:38:59.337Z,19.73
2018-12-14T17:44:37.483Z,23.63
2018-12-14T17:53:14.395Z,26.13
2018-12-14T17:55:40.892Z,25.77
2018-12-14T17:58:07.533Z,29.00
2018-12-14T18:00:33.994Z,29.73
2018-12-14T18:03:00.402Z,27.30
2018-12-14T18:05:26.731Z,23.87
2018-12-14T18:07:52.995Z,23.40
2018-12-14T18:10:19.575Z,21.83
2018-12-14T18:12:46.031Z,25.80
2018-12-14T18:15:12.315Z,23.23
2018-12-14T18:17:38.604Z,25.33
2018-12-14T18:20:06.189Z,20.90
2018-12-14T18:22:32.649Z,22.67
2018-12-14T18:24:59.423Z,24.33
2018-12-14T18:27:25.731Z,24.33
2018-12-14T18:29:52.517Z,24.63
2018-12-14T18:32:18.964Z,20.90
2018-12-14T18:34:45.311Z,22.57
2018-12-14T18:37:11.624Z,25.47
2018-12-14T18:39:37.915Z,25.30
2018-12-14T18:42:04.234Z,29.50
2018-12-14T18:44:30.544Z,30.97
2018-12-14T18:46:56.902Z,34.00
2018-12-14T18:49:23.228Z,28.97
2018-12-14T18:51:49.665Z,24.33
2018-12-14T18:54:16.355Z,21.73
2018-12-14T18:56:42.653Z,21.20
2018-12-14T18:59:09.460Z,21.90
2018-12-14T19:01:35.760Z,20.13
2018-12-14T19:04:03.003Z,23.03
2018-12-14T19:06:29.371Z,22.87
2018-12-14T19:08:55.647Z,23.33
2018-12-14T19:17:38.205Z,17.90
2018-12-14T19:23:19.942Z,19.27
2018-12-14T19:25:50.022Z,23.57
2018-12-14T19:34:33.161Z,22.97
2018-12-14T19:51:55.341Z,17.10
2018-12-14T20:15:40.200Z,21.63
2018-12-14T20:18:10.143Z,20.83
2018-12-14T20:26:36.788Z,11.87
2018-12-14T20:29:09.144Z,14.93
2018-12-14T20:43:46.598Z,13.13
2018-12-14T20:55:36.703Z,15.50
2018-12-14T20:58:23.104Z,16.23
2018-12-14T21:04:16.644Z,20.73
2018-12-14T21:06:55.537Z,19.87
2018-12-14T21:12:32.526Z,21.43
2018-12-14T21:15:11.774Z,20.97
2018-12-14T21:17:38.158Z,20.13
2018-12-14T21:20:12.707Z,24.33
2018-12-14T21:22:51.938Z,21.70
2018-12-14T21:37:38.245Z,19.53
2018-12-14T21:40:29.403Z,21.07
2018-12-14T21:46:03.297Z,19.10
2018-12-14T21:48:32.825Z,24.07
2018-12-14T21:51:21.635Z,24.83
2018-12-14T21:54:01.228Z,23.80
2018-12-14T21:56:33.992Z,19.00
2018-12-14T21:59:05.281Z,21.57
2018-12-14T22:01:31.593Z,20.57
2018-12-14T22:03:57.919Z,18.50
2018-12-14T22:06:24.202Z,16.47
2018-12-14T22:08:50.506Z,15.60
2018-12-14T22:11:16.819Z,17.03
2018-12-14T22:13:44.140Z,23.07
2018-12-14T22:16:10.393Z,21.73
2018-12-14T22:18:36.669Z,18.37
2018-12-14T22:21:04.546Z,19.67
2018-12-14T22:23:33.197Z,18.30
2018-12-14T22:26:01.719Z,16.75
2018-12-14T22:28:30.098Z,16.67
2018-12-14T22:30:58.535Z,17.10
2018-12-14T22:33:26.795Z,22.93
2018-12-14T22:35:55.084Z,22.33
2018-12-14T22:38:23.278Z,23.03
2018-12-14T22:40:52.348Z,21.10
2018-12-14T22:43:22.470Z,19.27
2018-12-14T22:45:52.504Z,18.93
2018-12-14T22:48:21.509Z,20.17
2018-12-14T22:50:50.267Z,21.07
2018-12-14T22:53:18.651Z,17.63
2018-12-14T22:55:45.175Z,21.63
2018-12-14T22:58:12.844Z,20.43
2018-12-14T23:00:59.446Z,19.70
2018-12-14T23:03:28.318Z,19.53
2018-12-14T23:05:56.053Z,21.30
2018-12-14T23:08:24.158Z,20.93
2018-12-14T23:10:51.246Z,17.00
2018-12-14T23:13:18.713Z,14.97
2018-12-14T23:15:45.451Z,15.07
2018-12-14T23:18:13.101Z,12.80
2018-12-14T23:20:42.566Z,16.30
2018-12-14T23:23:10.906Z,17.67
2018-12-14T23:25:39.930Z,18.90
2018-12-14T23:28:07.587Z,20.90
2018-12-14T23:30:34.608Z,21.17
2018-12-14T23:33:01.940Z,17.77
2018-12-14T23:35:28.959Z,17.97
2018-12-14T23:37:56.954Z,17.43
2018-12-14T23:40:23.760Z,15.23
2018-12-14T23:42:52.802Z,16.83
2018-12-14T23:45:21.913Z,18.77
2018-12-14T23:47:49.586Z,21.20
2018-12-14T23:50:17.270Z,20.67
2018-12-14T23:52:44.195Z,21.90
2018-12-14T23:55:11.754Z,19.53
2018-12-14T23:57:39.649Z,18.03
